createdAt,value
2018-07-21T00:00:26.229Z,929.16
2018-07-21T00:01:26.272Z,929.16
2018-07-21T00:02:26.366Z,929.13
2018-07-21T00:03:26.353Z,929.09
2018-07-21T00:04:26.405Z,929.13
2018-07-21T00:05:26.452Z,929.12
2018-07-21T00:06:26.508Z,929.10
2018-07-21T00:07:26.517Z,929.13
2018-07-21T00:08:26.593Z,929.12
2018-07-21T00:09:26.622Z,929.14
2018-07-21T00:10:26.676Z,929.11
2018-07-21T00:11:26.745Z,929.13
2018-07-21T00:12:26.767Z,929.13
2018-07-21T00:13:26.847Z,929.15
2018-07-21T00:14:26.901Z,929.14
2018-07-21T00:15:26.937Z,929.14
2018-07-21T00:16:26.991Z,929.15
2018-07-21T00:17:27.025Z,929.13
2018-07-21T00:18:27.057Z,929.17
2018-07-21T00:19:27.104Z,929.18
2018-07-21T00:20:27.148Z,929.19
2018-07-21T00:21:27.208Z,929.20
2018-07-21T00:22:27.262Z,929.20
2018-07-21T00:23:27.325Z,929.18
2018-07-21T00:24:27.327Z,929.19
2018-07-21T00:25:27.385Z,929.20
2018-07-21T00:26:27.423Z,929.24
2018-07-21T00:27:27.486Z,929.20
2018-07-21T00:28:27.521Z,929.24
2018-07-21T00:29:27.573Z,929.27
2018-07-21T00:30:27.639Z,929.29
2018-07-21T00:31:27.687Z,929.31
2018-07-21T00:32:27.714Z,929.31
2018-07-21T00:33:27.762Z,929.36
2018-07-21T00:34:27.814Z,929.32
2018-07-21T00:35:27.852Z,929.40
2018-07-21T00:36:27.910Z,929.39
2018-07-21T00:37:27.950Z,929.39
2018-07-21T00:38:27.982Z,929.41
2018-07-21T00:39:28.048Z,929.42
2018-07-21T00:40:28.096Z,929.40
2018-07-21T00:41:28.131Z,929.43
2018-07-21T00:42:28.172Z,929.43
2018-07-21T00:43:28.242Z,929.40
2018-07-21T00:44:28.283Z,929.38
2018-07-21T00:45:28.329Z,929.40
2018-07-21T00:46:28.381Z,929.40
2018-07-21T00:47:28.408Z,929.43
2018-07-21T00:48:28.443Z,929.40
2018-07-21T00:49:28.514Z,929.40
2018-07-21T00:50:28.570Z,929.38
2018-07-21T00:51:28.600Z,929.38
2018-07-21T00:52:28.650Z,929.38
2018-07-21T00:53:28.689Z,929.40
2018-07-21T00:54:28.727Z,929.37
2018-07-21T00:55:28.778Z,929.37
2018-07-21T00:56:28.851Z,929.36
2018-07-21T00:57:28.870Z,929.40
2018-07-21T00:58:28.945Z,929.42
2018-07-21T00:59:28.972Z,929.40
2018-07-21T01:00:29.004Z,929.36
2018-07-21T01:01:29.059Z,929.36
2018-07-21T01:02:29.117Z,929.36
2018-07-21T01:03:29.151Z,929.37
2018-07-21T01:04:29.189Z,929.38
2018-07-21T01:05:29.248Z,929.34
2018-07-21T01:06:29.282Z,929.35
2018-07-21T01:07:29.358Z,929.37
2018-07-21T01:08:29.355Z,929.37
2018-07-21T01:09:29.408Z,929.36
2018-07-21T01:10:29.495Z,929.36
2018-07-21T01:11:29.549Z,929.39
2018-07-21T01:12:29.567Z,929.39
2018-07-21T01:13:29.635Z,929.39
2018-07-21T01:14:29.652Z,929.41
2018-07-21T01:15:29.722Z,929.41
2018-07-21T01:16:29.736Z,929.42
2018-07-21T01:17:29.811Z,929.45
2018-07-21T01:18:29.835Z,929.43
2018-07-21T01:19:29.889Z,929.44
2018-07-21T01:20:29.945Z,929.42
2018-07-21T01:21:30.188Z,929.45
2018-07-21T01:22:30.017Z,929.46
2018-07-21T01:23:30.063Z,929.49
2018-07-21T01:24:30.149Z,929.49
2018-07-21T01:25:30.182Z,929.49
2018-07-21T01:26:30.234Z,929.48
2018-07-21T01:27:30.260Z,929.46
2018-07-21T01:28:30.292Z,929.44
2018-07-21T01:29:30.367Z,929.44
2018-07-21T01:30:30.421Z,929.44
2018-07-21T01:31:30.453Z,929.43
2018-07-21T01:32:30.488Z,929.42
2018-07-21T01:33:30.524Z,929.41
2018-07-21T01:34:30.602Z,929.38
2018-07-21T01:35:30.633Z,929.39
2018-07-21T01:36:30.675Z,929.43
2018-07-21T01:37:30.737Z,929.45
2018-07-21T01:38:30.747Z,929.42
2018-07-21T01:39:30.833Z,929.39
2018-07-21T01:40:30.872Z,929.39
2018-07-21T01:41:30.905Z,929.38
2018-07-21T01:42:31.417Z,929.39
2018-07-21T01:43:31.006Z,929.39
2018-07-21T01:44:31.049Z,929.36
2018-07-21T01:45:31.088Z,929.39
2018-07-21T01:46:31.141Z,929.40
2018-07-21T01:47:31.202Z,929.38
2018-07-21T01:48:31.244Z,929.39
2018-07-21T01:49:31.268Z,929.36
2018-07-21T01:50:31.306Z,929.37
2018-07-21T01:51:31.384Z,929.36
2018-07-21T01:52:31.405Z,929.37
2018-07-21T01:53:31.465Z,929.37
2018-07-21T01:54:31.524Z,929.37
2018-07-21T01:55:31.535Z,929.42
2018-07-21T01:56:31.576Z,929.40
2018-07-21T01:57:31.652Z,929.38
2018-07-21T01:58:31.680Z,929.42
2018-07-21T01:59:31.720Z,929.45
2018-07-21T02:00:31.791Z,929.44
2018-07-21T02:01:31.836Z,929.43
2018-07-21T02:02:31.894Z,929.43
2018-07-21T02:03:31.913Z,929.42
2018-07-21T02:04:31.980Z,929.44
2018-07-21T02:05:32.082Z,929.43
2018-07-21T02:06:32.084Z,929.41
2018-07-21T02:07:32.104Z,929.46
2018-07-21T02:08:32.159Z,929.48
2018-07-21T02:09:32.181Z,929.49
2018-07-21T02:10:32.216Z,929.51
2018-07-21T02:11:32.286Z,929.48
2018-07-21T02:12:32.377Z,929.52
2018-07-21T02:13:32.366Z,929.49
2018-07-21T02:14:32.411Z,929.53
2018-07-21T02:15:32.468Z,929.52
2018-07-21T02:16:32.512Z,929.54
2018-07-21T02:17:32.570Z,929.47
2018-07-21T02:18:32.612Z,929.46
2018-07-21T02:19:32.666Z,929.45
2018-07-21T02:20:32.708Z,929.45
2018-07-21T02:21:32.755Z,929.42
2018-07-21T02:22:32.825Z,929.42
2018-07-21T02:23:32.838Z,929.41
2018-07-21T02:24:32.969Z,929.43
2018-07-21T02:25:32.954Z,929.42
2018-07-21T02:26:32.974Z,929.43
2018-07-21T02:27:33.034Z,929.38
2018-07-21T02:28:33.073Z,929.41
2018-07-21T02:29:33.108Z,929.40
2018-07-21T02:30:33.144Z,929.38
2018-07-21T02:31:33.215Z,929.42
2018-07-21T02:32:33.272Z,929.40
2018-07-21T02:33:33.301Z,929.38
2018-07-21T02:34:33.359Z,929.42
2018-07-21T02:35:33.394Z,929.37
2018-07-21T02:36:33.461Z,929.39
2018-07-21T02:37:33.514Z,929.41
2018-07-21T02:38:33.543Z,929.41
2018-07-21T02:39:33.576Z,929.42
2018-07-21T02:40:33.617Z,929.42
2018-07-21T02:41:33.681Z,929.44
2018-07-21T02:42:33.700Z,929.44
2018-07-21T02:43:33.765Z,929.41
2018-07-21T02:44:33.800Z,929.41
2018-07-21T02:45:33.896Z,929.43
2018-07-21T02:46:33.890Z,929.44
2018-07-21T02:47:33.931Z,929.44
2018-07-21T02:48:33.979Z,929.42
2018-07-21T02:49:34.027Z,929.45
2018-07-21T02:50:34.077Z,929.43
2018-07-21T02:51:34.139Z,929.45
2018-07-21T02:52:34.182Z,929.46
2018-07-21T02:53:34.226Z,929.45
2018-07-21T02:54:34.262Z,929.42
2018-07-21T02:55:34.338Z,929.48
2018-07-21T02:56:34.345Z,929.46
2018-07-21T02:57:34.413Z,929.48
2018-07-21T02:58:34.463Z,929.44
2018-07-21T02:59:34.471Z,929.47
2018-07-21T03:00:34.524Z,929.47
2018-07-21T03:01:34.605Z,929.44
2018-07-21T03:02:34.640Z,929.45
2018-07-21T03:03:34.668Z,929.39
2018-07-21T03:04:34.740Z,929.39
2018-07-21T03:05:34.799Z,929.43
2018-07-21T03:06:34.792Z,929.43
2018-07-21T03:07:34.884Z,929.43
2018-07-21T03:08:34.916Z,929.43
2018-07-21T03:09:34.976Z,929.46
2018-07-21T03:10:35.019Z,929.46
2018-07-21T03:11:35.034Z,929.49
2018-07-21T03:12:35.097Z,929.49
2018-07-21T03:13:35.136Z,929.52
2018-07-21T03:14:35.179Z,929.49
2018-07-21T03:15:35.237Z,929.51
2018-07-21T03:16:35.307Z,929.51
2018-07-21T03:17:35.339Z,929.50
2018-07-21T03:18:35.371Z,929.54
2018-07-21T03:19:35.443Z,929.55
2018-07-21T03:20:35.462Z,929.51
2018-07-21T03:21:35.513Z,929.56
2018-07-21T03:22:35.554Z,929.52
2018-07-21T03:23:35.798Z,929.56
2018-07-21T03:24:35.672Z,929.55
2018-07-21T03:25:35.703Z,929.59
2018-07-21T03:26:35.740Z,929.54
2018-07-21T03:27:35.788Z,929.56
2018-07-21T03:28:35.838Z,929.57
2018-07-21T03:29:35.888Z,929.56
2018-07-21T03:30:35.919Z,929.56
2018-07-21T03:31:35.963Z,929.52
2018-07-21T03:32:36.027Z,929.57
2018-07-21T03:33:36.041Z,929.54
2018-07-21T03:34:36.306Z,929.52
2018-07-21T03:35:36.154Z,929.54
2018-07-21T03:36:36.187Z,929.52
2018-07-21T03:37:36.254Z,929.51
2018-07-21T03:38:36.292Z,929.54
2018-07-21T03:39:36.322Z,929.54
2018-07-21T03:40:36.438Z,929.48
2018-07-21T03:41:36.419Z,929.58
2018-07-21T03:42:36.471Z,929.53
2018-07-21T03:43:36.492Z,929.49
2018-07-21T03:44:36.548Z,929.50
2018-07-21T03:45:36.616Z,929.50
2018-07-21T03:46:36.654Z,929.52
2018-07-21T03:47:36.708Z,929.48
2018-07-21T03:48:36.734Z,929.48
2018-07-21T03:49:36.802Z,929.48
2018-07-21T03:50:36.839Z,929.43
2018-07-21T03:51:36.873Z,929.44
2018-07-21T03:52:36.923Z,929.47
2018-07-21T03:53:36.951Z,929.46
2018-07-21T03:54:36.996Z,929.44
2018-07-21T03:55:37.043Z,929.42
2018-07-21T03:56:37.075Z,929.43
2018-07-21T03:57:37.344Z,929.45
2018-07-21T03:58:37.182Z,929.43
2018-07-21T03:59:37.217Z,929.45
2018-07-21T04:00:37.322Z,929.47
2018-07-21T04:01:37.330Z,929.40
2018-07-21T04:02:37.343Z,929.42
2018-07-21T04:03:37.411Z,929.41
2018-07-21T04:04:37.447Z,929.39
2018-07-21T04:05:37.507Z,929.42
2018-07-21T04:06:37.555Z,929.41
2018-07-21T04:07:37.590Z,929.40
2018-07-21T04:08:37.655Z,929.42
2018-07-21T04:09:37.711Z,929.44
2018-07-21T04:10:37.728Z,929.46
2018-07-21T04:11:37.780Z,929.42
2018-07-21T04:12:37.836Z,929.43
2018-07-21T04:13:37.851Z,929.46
2018-07-21T04:14:37.920Z,929.46
2018-07-21T04:15:37.973Z,929.42
2018-07-21T04:16:37.998Z,929.46
2018-07-21T04:17:38.029Z,929.43
2018-07-21T04:18:38.093Z,929.44
2018-07-21T04:19:38.341Z,929.40
2018-07-21T04:20:38.182Z,929.44
2018-07-21T04:21:38.242Z,929.39
2018-07-21T04:22:38.267Z,929.39
2018-07-21T04:23:38.335Z,929.40
2018-07-21T04:24:38.364Z,929.43
2018-07-21T04:25:38.401Z,929.43
2018-07-21T04:26:38.446Z,929.40
2018-07-21T04:27:38.497Z,929.40
2018-07-21T04:28:38.564Z,929.38
2018-07-21T04:29:38.588Z,929.38
2018-07-21T04:30:38.649Z,929.40
2018-07-21T04:31:38.692Z,929.40
2018-07-21T04:32:38.755Z,929.40
2018-07-21T04:33:38.774Z,929.41
2018-07-21T04:34:38.815Z,929.43
2018-07-21T04:35:38.871Z,929.47
2018-07-21T04:36:38.901Z,929.44
2018-07-21T04:37:38.939Z,929.48
2018-07-21T04:38:38.978Z,929.43
2018-07-21T04:39:39.056Z,929.44
2018-07-21T04:40:39.081Z,929.44
2018-07-21T04:41:39.128Z,929.47
2018-07-21T04:42:39.172Z,929.49
2018-07-21T04:43:39.223Z,929.47
2018-07-21T04:44:39.269Z,929.46
2018-07-21T04:45:39.290Z,929.47
2018-07-21T04:46:39.378Z,929.43
2018-07-21T04:47:39.404Z,929.45
2018-07-21T04:48:39.451Z,929.41
2018-07-21T04:49:39.506Z,929.40
2018-07-21T04:50:39.530Z,929.40
2018-07-21T04:51:39.568Z,929.39
2018-07-21T04:52:39.840Z,929.38
2018-07-21T04:53:39.692Z,929.39
2018-07-21T04:54:39.721Z,929.34
2018-07-21T04:55:39.754Z,929.34
2018-07-21T04:56:39.791Z,929.32
2018-07-21T04:57:39.858Z,929.31
2018-07-21T04:58:39.878Z,929.28
2018-07-21T04:59:39.932Z,929.30
2018-07-21T05:00:40.034Z,929.29
2018-07-21T05:01:40.050Z,929.28
2018-07-21T05:02:40.070Z,929.31
2018-07-21T05:03:40.144Z,929.33
2018-07-21T05:04:40.377Z,929.33
2018-07-21T05:05:40.236Z,929.34
2018-07-21T05:06:40.236Z,929.37
2018-07-21T05:07:40.306Z,929.39
2018-07-21T05:08:40.334Z,929.41
2018-07-21T05:09:40.402Z,929.45
2018-07-21T05:10:40.441Z,929.41
2018-07-21T05:11:40.485Z,929.49
2018-07-21T05:12:40.529Z,929.54
2018-07-21T05:13:40.571Z,929.52
2018-07-21T05:14:40.611Z,929.56
2018-07-21T05:15:40.656Z,929.55
2018-07-21T05:16:40.701Z,929.61
2018-07-21T05:17:40.754Z,929.60
2018-07-21T05:18:40.818Z,929.60
2018-07-21T05:19:40.827Z,929.56
2018-07-21T05:20:40.879Z,929.57
2018-07-21T05:21:40.907Z,929.56
2018-07-21T05:22:41.024Z,929.56
2018-07-21T05:23:41.029Z,929.56
2018-07-21T05:24:41.064Z,929.56
2018-07-21T05:25:41.124Z,929.54
2018-07-21T05:26:41.134Z,929.51
2018-07-21T05:27:41.206Z,929.50
2018-07-21T05:28:41.474Z,929.47
2018-07-21T05:29:41.304Z,929.40
2018-07-21T05:30:41.338Z,929.45
2018-07-21T05:31:41.399Z,929.47
2018-07-21T05:32:41.428Z,929.45
2018-07-21T05:33:41.460Z,929.43
2018-07-21T05:34:41.504Z,929.46
2018-07-21T05:35:41.553Z,929.46
2018-07-21T05:36:41.626Z,929.48
2018-07-21T05:37:41.650Z,929.48
2018-07-21T05:38:41.690Z,929.48
2018-07-21T05:39:41.995Z,929.43
2018-07-21T05:40:41.796Z,929.44
2018-07-21T05:41:41.822Z,929.41
2018-07-21T05:42:41.939Z,929.43
2018-07-21T05:43:41.925Z,929.43
2018-07-21T05:44:41.964Z,929.40
2018-07-21T05:45:42.005Z,929.41
2018-07-21T05:46:42.057Z,929.44
2018-07-21T05:47:42.125Z,929.41
2018-07-21T05:48:42.170Z,929.43
2018-07-21T05:49:42.191Z,929.37
2018-07-21T05:50:42.222Z,929.36
2018-07-21T05:51:42.521Z,929.42
2018-07-21T05:52:42.308Z,929.36
2018-07-21T05:53:42.369Z,929.38
2018-07-21T05:54:42.440Z,929.37
2018-07-21T05:55:42.464Z,929.35
2018-07-21T05:56:42.523Z,929.40
2018-07-21T05:57:42.564Z,929.37
2018-07-21T05:58:42.599Z,929.37
2018-07-21T05:59:42.644Z,929.32
2018-07-21T06:00:42.686Z,929.36
2018-07-21T06:01:42.726Z,929.36
2018-07-21T06:02:42.833Z,929.37
2018-07-21T06:03:43.074Z,929.39
2018-07-21T06:04:42.851Z,929.41
2018-07-21T06:05:42.900Z,929.43
2018-07-21T06:06:42.939Z,929.43
2018-07-21T06:07:43.007Z,929.45
2018-07-21T06:08:43.072Z,929.41
2018-07-21T06:09:43.057Z,929.41
2018-07-21T06:10:43.119Z,929.41
2018-07-21T06:11:43.190Z,929.44
2018-07-21T06:12:43.224Z,929.44
2018-07-21T06:13:43.249Z,929.42
2018-07-21T06:14:43.496Z,929.39
2018-07-21T06:15:43.333Z,929.41
2018-07-21T06:16:43.387Z,929.41
2018-07-21T06:17:43.440Z,929.42
2018-07-21T06:18:43.490Z,929.39
2018-07-21T06:19:43.538Z,929.37
2018-07-21T06:20:43.572Z,929.37
2018-07-21T06:21:43.650Z,929.34
2018-07-21T06:22:43.645Z,929.34
2018-07-21T06:23:43.734Z,929.37
2018-07-21T06:24:43.763Z,929.33
2018-07-21T06:25:43.990Z,929.35
2018-07-21T06:26:43.846Z,929.36
2018-07-21T06:27:43.866Z,929.38
2018-07-21T06:28:43.936Z,929.35
2018-07-21T06:29:43.950Z,929.35
2018-07-21T06:30:44.008Z,929.33
2018-07-21T06:31:44.059Z,929.33
2018-07-21T06:32:44.103Z,929.32
2018-07-21T06:33:44.147Z,929.31
2018-07-21T06:34:44.186Z,929.29
2018-07-21T06:35:44.229Z,929.30
2018-07-21T06:36:44.264Z,929.28
2018-07-21T06:37:44.533Z,929.30
2018-07-21T06:38:44.348Z,929.30
2018-07-21T06:39:44.386Z,929.31
2018-07-21T06:40:44.434Z,929.29
2018-07-21T06:41:44.475Z,929.31
2018-07-21T06:42:44.526Z,929.29
2018-07-21T06:43:44.618Z,929.32
2018-07-21T06:44:44.630Z,929.31
2018-07-21T06:45:44.662Z,929.30
2018-07-21T06:46:44.716Z,929.32
2018-07-21T06:47:44.747Z,929.30
2018-07-21T06:48:44.826Z,929.34
2018-07-21T06:49:44.858Z,929.38
2018-07-21T06:50:44.898Z,929.37
2018-07-21T06:51:44.953Z,929.35
2018-07-21T06:52:45.194Z,929.40
2018-07-21T06:53:45.040Z,929.38
2018-07-21T06:54:45.072Z,929.42
2018-07-21T06:55:45.126Z,929.39
2018-07-21T06:56:45.149Z,929.38
2018-07-21T06:57:45.212Z,929.40
2018-07-21T06:58:45.251Z,929.36
2018-07-21T06:59:45.295Z,929.37
2018-07-21T07:00:45.324Z,929.35
2018-07-21T07:01:45.391Z,929.31
2018-07-21T07:02:45.436Z,929.33
2018-07-21T07:03:45.479Z,929.31
2018-07-21T07:04:45.763Z,929.27
2018-07-21T07:05:45.579Z,929.27
2018-07-21T07:06:45.595Z,929.25
2018-07-21T07:07:45.653Z,929.25
2018-07-21T07:08:45.690Z,929.25
2018-07-21T07:09:45.755Z,929.30
2018-07-21T07:10:45.768Z,929.30
2018-07-21T07:11:45.840Z,929.33
2018-07-21T07:12:45.921Z,929.30
2018-07-21T07:13:45.902Z,929.32
2018-07-21T07:14:45.970Z,929.31
2018-07-21T07:15:45.984Z,929.28
2018-07-21T07:16:46.064Z,929.30
2018-07-21T07:17:46.097Z,929.30
2018-07-21T07:18:46.179Z,929.28
2018-07-21T07:19:46.227Z,929.24
2018-07-21T07:20:46.243Z,929.27
2018-07-21T07:21:46.263Z,929.26
2018-07-21T07:22:46.299Z,929.28
2018-07-21T07:23:46.397Z,929.31
2018-07-21T07:24:46.400Z,929.30
2018-07-21T07:25:46.448Z,929.29
2018-07-21T07:26:46.483Z,929.33
2018-07-21T07:27:46.520Z,929.29
2018-07-21T07:28:46.788Z,929.31
2018-07-21T07:29:46.617Z,929.27
2018-07-21T07:30:46.673Z,929.25
2018-07-21T07:31:46.692Z,929.28
2018-07-21T07:32:46.752Z,929.27
2018-07-21T07:33:46.793Z,929.30
2018-07-21T07:34:46.852Z,929.30
2018-07-21T07:35:46.876Z,929.28
2018-07-21T07:36:46.937Z,929.27
2018-07-21T07:37:46.970Z,929.30
2018-07-21T07:38:47.025Z,929.33
2018-07-21T07:39:47.235Z,929.25
2018-07-21T07:40:47.104Z,929.31
2018-07-21T07:41:47.146Z,929.29
2018-07-21T07:42:47.202Z,929.30
2018-07-21T07:43:47.272Z,929.28
2018-07-21T07:44:47.312Z,929.29
2018-07-21T07:45:47.326Z,929.29
2018-07-21T07:46:47.362Z,929.35
2018-07-21T07:47:47.399Z,929.29
2018-07-21T07:48:47.467Z,929.34
2018-07-21T07:49:47.489Z,929.38
2018-07-21T07:50:47.534Z,929.39
2018-07-21T07:51:47.789Z,929.38
2018-07-21T07:52:47.627Z,929.37
2018-07-21T07:53:47.674Z,929.35
2018-07-21T07:54:47.729Z,929.31
2018-07-21T07:55:47.765Z,929.31
2018-07-21T07:56:47.830Z,929.30
2018-07-21T07:57:47.843Z,929.36
2018-07-21T07:58:47.881Z,929.40
2018-07-21T07:59:47.937Z,929.39
2018-07-21T08:00:47.965Z,929.41
2018-07-21T08:01:48.033Z,929.45
2018-07-21T08:02:48.057Z,929.47
2018-07-21T08:03:48.342Z,929.47
2018-07-21T08:04:48.169Z,929.44
2018-07-21T08:05:48.215Z,929.45
2018-07-21T08:06:48.245Z,929.47
2018-07-21T08:07:48.316Z,929.46
2018-07-21T08:08:48.339Z,929.45
2018-07-21T08:09:48.397Z,929.44
2018-07-21T08:10:48.437Z,929.47
2018-07-21T08:11:48.519Z,929.49
2018-07-21T08:12:48.512Z,929.48
2018-07-21T08:13:48.547Z,929.49
2018-07-21T08:14:48.607Z,929.50
2018-07-21T08:15:48.638Z,929.48
2018-07-21T08:16:48.688Z,929.46
2018-07-21T08:17:48.731Z,929.51
2018-07-21T08:18:48.774Z,929.51
2018-07-21T08:19:49.047Z,929.54
2018-07-21T08:20:48.852Z,929.53
2018-07-21T08:21:48.914Z,929.48
2018-07-21T08:22:48.977Z,929.49
2018-07-21T08:23:48.978Z,929.49
2018-07-21T08:24:49.030Z,929.52
2018-07-21T08:25:49.068Z,929.49
2018-07-21T08:26:49.133Z,929.53
2018-07-21T08:27:49.177Z,929.54
2018-07-21T08:28:49.204Z,929.52
2018-07-21T08:29:49.264Z,929.57
2018-07-21T08:30:49.297Z,929.56
2018-07-21T08:31:49.314Z,929.56
2018-07-21T08:32:49.615Z,929.58
2018-07-21T08:33:49.446Z,929.60
2018-07-21T08:34:49.475Z,929.61
2018-07-21T08:35:49.524Z,929.59
2018-07-21T08:36:49.589Z,929.61
2018-07-21T08:37:49.596Z,929.61
2018-07-21T08:38:49.682Z,929.61
2018-07-21T08:39:49.713Z,929.68
2018-07-21T08:40:49.719Z,929.65
2018-07-21T08:41:49.774Z,929.69
2018-07-21T08:42:49.834Z,929.67
2018-07-21T08:43:49.869Z,929.73
2018-07-21T08:44:49.919Z,929.70
2018-07-21T08:45:49.969Z,929.76
2018-07-21T08:46:50.007Z,929.79
2018-07-21T08:47:50.272Z,929.82
2018-07-21T08:48:50.111Z,929.79
2018-07-21T08:49:50.126Z,929.82
2018-07-21T08:50:50.183Z,929.80
2018-07-21T08:51:50.225Z,929.86
2018-07-21T08:52:50.310Z,929.86
2018-07-21T08:53:50.322Z,929.85
2018-07-21T08:54:50.347Z,929.87
2018-07-21T08:55:50.493Z,929.86
2018-07-21T08:56:50.455Z,929.86
2018-07-21T08:57:50.499Z,929.85
2018-07-21T08:58:50.539Z,929.87
2018-07-21T08:59:50.816Z,929.83
2018-07-21T09:00:50.634Z,929.92
2018-07-21T09:01:50.659Z,929.87
2018-07-21T09:02:50.725Z,929.91
2018-07-21T09:03:50.754Z,929.91
2018-07-21T09:04:50.771Z,929.91
2018-07-21T09:05:50.903Z,929.95
2018-07-21T09:06:50.877Z,929.93
2018-07-21T09:07:50.919Z,929.94
2018-07-21T09:08:50.970Z,929.96
2018-07-21T09:09:50.976Z,929.95
2018-07-21T09:10:51.313Z,929.99
2018-07-21T09:11:51.105Z,930.02
2018-07-21T09:12:51.142Z,930.03
2018-07-21T09:13:51.165Z,930.07
2018-07-21T09:14:51.223Z,930.13
2018-07-21T09:15:51.269Z,930.17
2018-07-21T09:16:51.330Z,930.18
2018-07-21T09:17:51.360Z,930.21
2018-07-21T09:18:51.378Z,930.24
2018-07-21T09:19:51.449Z,930.22
2018-07-21T09:20:51.502Z,930.24
2018-07-21T09:21:51.522Z,930.28
2018-07-21T09:22:51.579Z,930.26
2018-07-21T09:23:51.663Z,930.29
2018-07-21T09:24:51.631Z,930.32
2018-07-21T09:25:51.721Z,930.32
2018-07-21T09:26:51.953Z,930.34
2018-07-21T09:27:51.800Z,930.35
2018-07-21T09:28:51.812Z,930.37
2018-07-21T09:29:51.890Z,930.39
2018-07-21T09:30:51.912Z,930.37
2018-07-21T09:31:51.954Z,930.41
2018-07-21T09:32:52.007Z,930.41
2018-07-21T09:33:52.103Z,930.40
2018-07-21T09:34:52.098Z,930.42
2018-07-21T09:35:52.125Z,930.41
2018-07-21T09:36:52.198Z,930.36
2018-07-21T09:37:52.204Z,930.37
2018-07-21T09:38:52.282Z,930.37
2018-07-21T09:39:52.314Z,930.36
2018-07-21T09:40:52.361Z,930.37
2018-07-21T09:41:52.402Z,930.38
2018-07-21T09:42:52.474Z,930.40
2018-07-21T09:43:52.462Z,930.41
2018-07-21T09:44:52.535Z,930.44
2018-07-21T09:45:52.555Z,930.44
2018-07-21T09:46:52.600Z,930.47
2018-07-21T09:47:52.661Z,930.47
2018-07-21T09:48:52.696Z,930.48
2018-07-21T09:49:52.943Z,930.55
2018-07-21T09:50:52.804Z,930.50
2018-07-21T09:51:52.821Z,930.50
2018-07-21T09:52:52.875Z,930.47
2018-07-21T09:53:52.917Z,930.49
2018-07-21T09:54:52.941Z,930.48
2018-07-21T09:55:53.063Z,930.50
2018-07-21T09:56:53.044Z,930.50
2018-07-21T09:57:53.095Z,930.48
2018-07-21T09:58:53.148Z,930.49
2018-07-21T09:59:53.172Z,930.51
2018-07-21T10:00:53.445Z,930.52
2018-07-21T10:01:53.267Z,930.55
2018-07-21T10:02:53.316Z,930.61
2018-07-21T10:03:53.350Z,930.66
2018-07-21T10:04:53.456Z,930.65
2018-07-21T10:05:53.426Z,930.66
2018-07-21T10:06:53.496Z,930.66
2018-07-21T10:07:53.541Z,930.71
2018-07-21T10:08:53.569Z,930.72
2018-07-21T10:09:53.599Z,930.72
2018-07-21T10:10:53.676Z,930.72
2018-07-21T10:11:53.692Z,930.71
2018-07-21T10:12:53.764Z,930.69
2018-07-21T10:13:53.812Z,930.71
2018-07-21T10:14:53.836Z,930.73
2018-07-21T10:15:53.886Z,930.73
2018-07-21T10:16:53.937Z,930.80
2018-07-21T10:17:53.945Z,930.75
2018-07-21T10:18:54.261Z,930.77
2018-07-21T10:19:54.048Z,930.76
2018-07-21T10:20:54.112Z,930.81
2018-07-21T10:21:54.202Z,930.82
2018-07-21T10:22:54.183Z,930.87
2018-07-21T10:23:54.218Z,930.91
2018-07-21T10:24:54.279Z,930.92
2018-07-21T10:25:54.314Z,930.92
2018-07-21T10:26:54.346Z,930.88
2018-07-21T10:27:54.390Z,930.96
2018-07-21T10:28:54.508Z,930.94
2018-07-21T10:29:54.676Z,930.96
2018-07-21T10:30:54.540Z,930.99
2018-07-21T10:31:54.588Z,930.99
2018-07-21T10:32:54.635Z,931.00
2018-07-21T10:33:54.707Z,931.01
2018-07-21T10:34:54.735Z,931.06
2018-07-21T10:35:54.779Z,931.05
2018-07-21T10:36:54.855Z,931.07
2018-07-21T10:37:54.844Z,931.08
2018-07-21T10:38:54.887Z,931.11
2018-07-21T10:39:54.947Z,931.11
2018-07-21T10:40:55.006Z,931.10
2018-07-21T10:41:55.032Z,931.13
2018-07-21T10:42:55.076Z,931.16
2018-07-21T10:43:55.181Z,931.17
2018-07-21T10:44:55.165Z,931.17
2018-07-21T10:45:55.265Z,931.12
2018-07-21T10:46:55.278Z,931.16
2018-07-21T10:47:55.348Z,931.16
2018-07-21T10:48:55.332Z,931.19
2018-07-21T10:49:55.378Z,931.25
2018-07-21T10:50:55.451Z,931.20
2018-07-21T10:51:55.511Z,931.22
2018-07-21T10:52:55.537Z,931.23
2018-07-21T10:53:55.601Z,931.24
2018-07-21T10:54:55.646Z,931.25
2018-07-21T10:55:55.692Z,931.22
2018-07-21T10:56:55.901Z,931.24
2018-07-21T10:57:55.789Z,931.25
2018-07-21T10:58:55.835Z,931.26
2018-07-21T10:59:55.883Z,931.30
2018-07-21T11:00:55.897Z,931.31
2018-07-21T11:01:55.987Z,931.32
2018-07-21T11:02:56.056Z,931.35
2018-07-21T11:03:56.041Z,931.36
2018-07-21T11:04:56.118Z,931.35
2018-07-21T11:05:56.170Z,931.33
2018-07-21T11:06:56.188Z,931.38
2018-07-21T11:07:56.248Z,931.39
2018-07-21T11:08:56.290Z,931.38
2018-07-21T11:09:56.357Z,931.42
2018-07-21T11:10:56.387Z,931.43
2018-07-21T11:11:56.471Z,931.43
2018-07-21T11:12:56.530Z,931.45
2018-07-21T11:13:56.596Z,931.46
2018-07-21T11:14:56.581Z,931.48
2018-07-21T11:15:56.665Z,931.50
2018-07-21T11:16:56.692Z,931.56
2018-07-21T11:17:56.743Z,931.58
2018-07-21T11:18:56.800Z,931.59
2018-07-21T11:19:56.849Z,931.59
2018-07-21T11:20:56.916Z,931.60
2018-07-21T11:21:56.974Z,931.67
2018-07-21T11:22:56.979Z,931.66
2018-07-21T11:23:57.044Z,931.65
2018-07-21T11:24:57.089Z,931.66
2018-07-21T11:25:57.148Z,931.69
2018-07-21T11:26:57.186Z,931.68
2018-07-21T11:27:57.217Z,931.72
2018-07-21T11:28:57.301Z,931.70
2018-07-21T11:29:57.383Z,931.76
2018-07-21T11:30:57.377Z,931.74
2018-07-21T11:31:57.462Z,931.77
2018-07-21T11:32:57.535Z,931.77
2018-07-21T11:33:57.573Z,931.79
2018-07-21T11:34:57.624Z,931.82
2018-07-21T11:35:57.938Z,931.81
2018-07-21T11:36:57.696Z,931.79
2018-07-21T11:37:57.762Z,931.81
2018-07-21T11:38:57.809Z,931.83
2018-07-21T11:39:57.850Z,931.81
2018-07-21T11:40:57.907Z,931.80
2018-07-21T11:41:57.985Z,931.82
2018-07-21T11:42:57.997Z,931.79
2018-07-21T11:43:58.049Z,931.82
2018-07-21T11:44:58.116Z,931.80
2018-07-21T11:45:58.188Z,931.78
2018-07-21T11:46:58.466Z,931.85
2018-07-21T11:47:58.232Z,931.84
2018-07-21T11:48:58.311Z,931.82
2018-07-21T11:49:58.368Z,931.83
2018-07-21T11:50:58.430Z,931.85
2018-07-21T11:51:58.472Z,931.79
2018-07-21T11:52:58.495Z,931.84
2018-07-21T11:53:58.579Z,931.86
2018-07-21T11:54:58.631Z,931.84
2018-07-21T11:55:58.653Z,931.90
2018-07-21T11:56:58.766Z,931.92
2018-07-21T11:57:58.797Z,931.92
2018-07-21T11:58:58.853Z,931.98
2018-07-21T11:59:58.909Z,931.98
2018-07-21T12:00:58.944Z,932.02
2018-07-21T12:01:59.064Z,932.02
2018-07-21T12:02:59.043Z,932.06
2018-07-21T12:03:59.074Z,932.10
2018-07-21T12:04:59.121Z,932.11
2018-07-21T12:05:59.197Z,932.08
2018-07-21T12:06:59.292Z,932.03
2018-07-21T12:07:59.282Z,932.05
2018-07-21T12:08:59.367Z,932.02
2018-07-21T12:09:59.411Z,932.07
2018-07-21T12:10:59.450Z,932.10
2018-07-21T12:11:59.501Z,932.09
2018-07-21T12:12:59.580Z,932.10
2018-07-21T12:13:59.610Z,932.05
2018-07-21T12:14:59.672Z,932.04
2018-07-21T12:15:59.722Z,932.10
2018-07-21T12:16:59.780Z,932.04
2018-07-21T12:17:59.801Z,932.07
2018-07-21T12:18:59.901Z,932.06
2018-07-21T12:19:59.913Z,932.04
2018-07-21T12:20:59.981Z,932.08
2018-07-21T12:22:00.038Z,932.11
2018-07-21T12:23:00.109Z,932.10
2018-07-21T12:24:00.153Z,932.12
2018-07-21T12:25:00.190Z,932.17
2018-07-21T12:26:00.277Z,932.16
2018-07-21T12:27:00.310Z,932.13
2018-07-21T12:28:00.391Z,932.15
2018-07-21T12:29:00.409Z,932.19